Time;durP1;ratioP1;P1;durP2;ratioP2;P2;SDS_P1;SDS_P2;PMS_P1;PMS_P2;Temp;Humidity;BMP_temperature;BMP_pressure;BME280_temperature;BME280_humidity;BME280_pressure;Samples;Min_cycle;Max_cycle;Signal;HPM_P1;HPM_P2
2023/08/09 00:00:16;;;;;;;;;;;19.80;70.80;;;;;;4145807;28;19936;-52
2023/08/09 00:02:57;;;;;;;;;;;19.80;70.90;;;;;;4154411;28;20006;-52
2023/08/09 00:05:38;;;;;;;;;;;19.80;71.00;;;;;;4170766;28;19936;-51
2023/08/09 00:08:19;;;;;;;;;;;19.70;70.90;;;;;;4157555;28;19937;-50
2023/08/09 00:10:59;;;;;;;;;;;19.70;71.00;;;;;;4174047;28;19931;-51
2023/08/09 00:13:40;;;;;;;;;;;19.70;71.00;;;;;;4154455;28;19974;-53
2023/08/09 00:16:21;;;;;;;;;;;19.70;71.00;;;;;;4174376;28;20062;-55
2023/08/09 00:19:03;;;;;;;;;;;19.70;71.10;;;;;;4157706;28;19936;-55
2023/08/09 00:21:46;;;;;;;;;;;19.70;71.10;;;;;;4157345;28;19979;-55
2023/08/09 00:24:27;;;;;;;;;;;19.70;71.10;;;;;;4146250;28;19933;-54
2023/08/09 00:27:07;;;;;;;;;;;19.70;71.20;;;;;;4159452;28;19936;-53
2023/08/09 00:29:48;;;;;;;;;;;19.70;71.20;;;;;;4168299;28;19987;-51
2023/08/09 00:32:29;;;;;;;;;;;19.60;71.20;;;;;;4173474;28;19932;-51
2023/08/09 00:35:12;;;;;;;;;;;19.60;71.30;;;;;;4174084;28;19936;-51
2023/08/09 00:37:52;;;;;;;;;;;19.60;71.30;;;;;;4174057;28;20394;-50
2023/08/09 00:40:33;;;;;;;;;;;19.60;72.20;;;;;;4172999;28;19939;-50
2023/08/09 00:43:14;;;;;;;;;;;19.60;71.30;;;;;;4162425;28;20342;-51
2023/08/09 00:45:55;;;;;;;;;;;19.60;71.40;;;;;;4157274;28;19932;-51
2023/08/09 00:48:36;;;;;;;;;;;19.60;71.50;;;;;;4153429;28;19936;-53
2023/08/09 00:51:19;;;;;;;;;;;19.60;71.50;;;;;;4157181;28;19982;-55
2023/08/09 00:54:00;;;;;;;;;;;19.60;71.60;;;;;;4156114;28;20026;-52
2023/08/09 00:56:41;;;;;;;;;;;19.60;71.60;;;;;;4144988;28;19952;-52
2023/08/09 00:59:22;;;;;;;;;;;19.50;71.60;;;;;;4157706;28;19999;-54
2023/08/09 01:02:03;;;;;;;;;;;19.50;71.70;;;;;;4160513;28;20264;-53
2023/08/09 01:04:45;;;;;;;;;;;19.50;71.70;;;;;;4160858;28;19935;-51
2023/08/09 01:07:30;;;;;;;;;;;19.50;71.70;;;;;;4141772;28;20512;-52
2023/08/09 01:10:14;;;;;;;;;;;19.50;71.70;;;;;;4154888;28;19951;-51
2023/08/09 01:12:57;;;;;;;;;;;19.50;71.80;;;;;;4155841;28;20010;-51
2023/08/09 01:15:39;;;;;;;;;;;19.50;71.80;;;;;;4124594;28;19937;-51
2023/08/09 01:18:21;;;;;;;;;;;19.50;71.80;;;;;;4141013;28;19972;-51
2023/08/09 01:21:02;;;;;;;;;;;19.50;71.80;;;;;;4139530;28;20362;-51
2023/08/09 01:23:46;;;;;;;;;;;19.50;71.90;;;;;;4140345;28;19932;-55
2023/08/09 01:26:27;;;;;;;;;;;19.50;71.90;;;;;;4138679;28;19932;-56
2023/08/09 01:29:07;;;;;;;;;;;19.50;71.80;;;;;;4140526;28;19936;-55
2023/08/09 01:31:48;;;;;;;;;;;19.40;71.80;;;;;;4140758;28;19972;-53
2023/08/09 01:34:30;;;;;;;;;;;19.40;71.80;;;;;;4153915;28;19959;-54
2023/08/09 01:37:13;;;;;;;;;;;19.40;71.90;;;;;;4148545;28;19932;-53
2023/08/09 01:39:58;;;;;;;;;;;19.40;71.90;;;;;;4140200;28;19995;-55
2023/08/09 01:42:39;;;;;;;;;;;19.40;72.00;;;;;;4137945;28;20277;-56
2023/08/09 01:45:20;;;;;;;;;;;19.40;72.00;;;;;;4150964;28;19952;-56
2023/08/09 01:48:01;;;;;;;;;;;19.40;72.00;;;;;;4140772;28;19939;-55
2023/08/09 01:50:43;;;;;;;;;;;19.30;71.90;;;;;;4150773;28;19932;-57
2023/08/09 01:53:23;;;;;;;;;;;19.40;72.10;;;;;;4161276;28;20285;-56
2023/08/09 01:56:06;;;;;;;;;;;19.30;72.90;;;;;;4138871;28;19936;-52
2023/08/09 01:58:47;;;;;;;;;;;19.30;72.10;;;;;;4136202;28;19932;-52
2023/08/09 02:01:27;;;;;;;;;;;19.30;72.10;;;;;;4139104;28;20400;-54
2023/08/09 02:04:09;;;;;;;;;;;19.30;72.10;;;;;;4149609;28;20079;-54
2023/08/09 02:06:50;;;;;;;;;;;19.30;72.10;;;;;;4150548;28;19937;-56
2023/08/09 02:09:30;;;;;;;;;;;19.30;72.10;;;;;;4140288;28;19936;-54
2023/08/09 02:12:12;;;;;;;;;;;19.30;72.10;;;;;;4140580;28;19936;-56
2023/08/09 02:14:53;;;;;;;;;;;19.30;72.10;;;;;;4141972;28;19948;-56
2023/08/09 02:17:33;;;;;;;;;;;19.30;72.10;;;;;;4155480;28;19936;-56
2023/08/09 02:20:15;;;;;;;;;;;19.20;72.10;;;;;;4156580;28;20698;-55
2023/08/09 02:22:55;;;;;;;;;;;19.20;72.20;;;;;;4148176;28;19932;-55
2023/08/09 02:25:36;;;;;;;;;;;19.20;72.20;;;;;;4161818;28;19936;-55
2023/08/09 02:28:18;;;;;;;;;;;19.20;72.20;;;;;;4144772;28;20407;-52
2023/08/09 02:30:59;;;;;;;;;;;19.20;72.30;;;;;;4155397;28;19936;-54
2023/08/09 02:33:41;;;;;;;;;;;19.20;72.30;;;;;;4130477;28;20336;-52
2023/08/09 02:36:22;;;;;;;;;;;19.20;72.30;;;;;;4137917;28;20446;-55
2023/08/09 02:39:04;;;;;;;;;;;19.20;72.30;;;;;;4138028;28;20372;-55
2023/08/09 02:41:46;;;;;;;;;;;19.20;72.30;;;;;;4138328;28;20019;-55
2023/08/09 02:44:29;;;;;;;;;;;19.20;72.30;;;;;;4148444;28;19982;-54
2023/08/09 02:47:10;;;;;;;;;;;19.20;72.30;;;;;;4155808;28;19936;-55
2023/08/09 02:49:51;;;;;;;;;;;19.20;72.40;;;;;;4154084;28;19936;-51
2023/08/09 02:52:32;;;;;;;;;;;19.20;72.40;;;;;;4149986;28;20059;-58
2023/08/09 02:55:13;;;;;;;;;;;19.20;72.50;;;;;;4138112;28;19975;-58
2023/08/09 02:57:54;;;;;;;;;;;19.20;72.60;;;;;;4138772;28;19936;-58
2023/08/09 03:00:36;;;;;;;;;;;19.20;72.60;;;;;;4120233;28;19976;-58
2023/08/09 03:03:17;;;;;;;;;;;19.10;72.50;;;;;;4146566;28;19940;-58
2023/08/09 03:06:00;;;;;;;;;;;19.10;72.50;;;;;;4149274;28;19952;-59
2023/08/09 03:08:41;;;;;;;;;;;19.10;72.50;;;;;;4137001;28;19931;-59
2023/08/09 03:11:22;;;;;;;;;;;19.10;72.50;;;;;;4137902;28;20377;-59
2023/08/09 03:14:03;;;;;;;;;;;19.10;72.60;;;;;;4140241;28;20296;-58
2023/08/09 03:16:45;;;;;;;;;;;19.10;72.60;;;;;;4137648;28;19937;-58
2023/08/09 03:19:26;;;;;;;;;;;19.10;72.50;;;;;;4148587;28;19933;-59
2023/08/09 03:22:07;;;;;;;;;;;19.10;72.50;;;;;;4148721;28;20018;-58
2023/08/09 03:24:50;;;;;;;;;;;19.10;72.50;;;;;;4148793;28;20043;-58
2023/08/09 03:27:30;;;;;;;;;;;19.10;72.50;;;;;;4137182;28;20058;-58
2023/08/09 03:30:12;;;;;;;;;;;19.10;72.50;;;;;;4124698;28;19936;-58
2023/08/09 03:32:54;;;;;;;;;;;19.10;72.50;;;;;;4148520;28;19936;-59
2023/08/09 03:35:35;;;;;;;;;;;19.10;72.50;;;;;;4153796;28;19935;-59
2023/08/09 03:38:16;;;;;;;;;;;19.10;72.50;;;;;;4138859;28;19937;-54
2023/08/09 03:40:56;;;;;;;;;;;19.10;72.50;;;;;;4139377;28;19949;-52
2023/08/09 03:43:37;;;;;;;;;;;19.10;72.60;;;;;;4143958;28;20064;-57
2023/08/09 03:46:18;;;;;;;;;;;19.00;72.50;;;;;;4106496;28;19937;-57
2023/08/09 03:49:00;;;;;;;;;;;19.00;72.60;;;;;;4137332;28;19940;-57
2023/08/09 03:51:42;;;;;;;;;;;19.00;72.60;;;;;;4148812;28;19933;-56
2023/08/09 03:54:23;;;;;;;;;;;19.10;72.60;;;;;;4138102;28;20020;-57
2023/08/09 03:57:06;;;;;;;;;;;19.00;72.60;;;;;;4137365;28;20071;-54
2023/08/09 03:59:47;;;;;;;;;;;19.00;73.50;;;;;;4136848;28;19937;-53
2023/08/09 04:02:28;;;;;;;;;;;19.00;72.60;;;;;;4146101;28;19932;-54
2023/08/09 04:05:10;;;;;;;;;;;19.00;72.90;;;;;;4154468;28;19936;-54
2023/08/09 04:07:51;;;;;;;;;;;19.00;72.90;;;;;;4168890;28;19932;-55
2023/08/09 04:10:31;;;;;;;;;;;19.00;72.80;;;;;;4153778;28;19952;-52
2023/08/09 04:13:12;;;;;;;;;;;19.00;72.80;;;;;;4153722;28;19935;-52
2023/08/09 04:15:53;;;;;;;;;;;19.00;72.70;;;;;;4154376;28;19932;-52
2023/08/09 04:18:34;;;;;;;;;;;18.90;72.60;;;;;;4164281;28;19940;-54
2023/08/09 04:21:16;;;;;;;;;;;18.90;72.70;;;;;;4152146;28;19936;-53
2023/08/09 04:23:57;;;;;;;;;;;19.00;72.80;;;;;;4154180;28;19932;-51
2023/08/09 04:26:38;;;;;;;;;;;18.90;72.70;;;;;;4151386;28;19932;-55
2023/08/09 04:29:18;;;;;;;;;;;18.90;72.80;;;;;;4142047;28;19936;-54
2023/08/09 04:31:59;;;;;;;;;;;18.90;72.80;;;;;;4159668;28;19967;-54
2023/08/09 04:34:40;;;;;;;;;;;18.90;72.80;;;;;;4170785;28;20021;-52
2023/08/09 04:37:23;;;;;;;;;;;18.90;72.90;;;;;;4169998;28;19971;-51
2023/08/09 04:40:10;;;;;;;;;;;18.90;72.90;;;;;;4168109;28;19931;-51
2023/08/09 04:42:52;;;;;;;;;;;18.90;72.90;;;;;;4170012;28;19932;-52
2023/08/09 04:45:33;;;;;;;;;;;18.90;72.90;;;;;;4158638;28;20364;-51
2023/08/09 04:48:17;;;;;;;;;;;18.90;72.90;;;;;;4170742;28;20304;-51
2023/08/09 04:50:58;;;;;;;;;;;18.90;73.80;;;;;;4170003;28;20062;-51
2023/08/09 04:53:41;;;;;;;;;;;18.90;73.70;;;;;;4170455;28;19931;-55
2023/08/09 04:56:22;;;;;;;;;;;18.90;72.90;;;;;;4162482;28;19936;-56
2023/08/09 04:59:03;;;;;;;;;;;18.90;72.90;;;;;;4143998;28;19951;-57
2023/08/09 05:01:44;;;;;;;;;;;18.90;72.80;;;;;;4156332;28;19940;-54
2023/08/09 05:04:25;;;;;;;;;;;18.90;72.80;;;;;;4155995;28;19932;-53
2023/08/09 05:07:05;;;;;;;;;;;18.90;72.90;;;;;;4156839;28;19951;-54
2023/08/09 05:09:47;;;;;;;;;;;18.90;72.90;;;;;;4156176;28;19975;-55
2023/08/09 05:12:28;;;;;;;;;;;18.90;72.80;;;;;;4156504;28;19936;-56
2023/08/09 05:15:10;;;;;;;;;;;18.90;73.10;;;;;;4154472;28;19933;-60
2023/08/09 05:17:50;;;;;;;;;;;19.00;73.40;;;;;;4156374;28;19974;-57
2023/08/09 05:20:31;;;;;;;;;;;19.10;73.50;;;;;;4155395;28;19936;-51
2023/08/09 05:23:12;;;;;;;;;;;19.10;73.30;;;;;;4157960;28;19931;-50
2023/08/09 05:25:55;;;;;;;;;;;19.10;73.20;;;;;;4172787;28;19982;-50
2023/08/09 05:28:36;;;;;;;;;;;19.10;73.10;;;;;;4173280;28;19974;-50
2023/08/09 05:31:16;;;;;;;;;;;19.10;73.00;;;;;;4160949;28;20471;-51
2023/08/09 05:33:57;;;;;;;;;;;19.20;73.10;;;;;;4157672;28;19936;-50
2023/08/09 05:36:38;;;;;;;;;;;19.20;72.90;;;;;;4156686;28;20288;-55
2023/08/09 05:39:19;;;;;;;;;;;19.20;72.80;;;;;;4172604;28;19935;-51
2023/08/09 05:42:03;;;;;;;;;;;19.20;72.70;;;;;;4155202;28;19936;-53
2023/08/09 05:44:43;;;;;;;;;;;19.20;72.60;;;;;;4171323;28;19936;-51
2023/08/09 05:47:24;;;;;;;;;;;19.20;72.60;;;;;;4170817;28;19932;-50
2023/08/09 05:50:06;;;;;;;;;;;19.20;72.50;;;;;;4153688;28;19944;-50
2023/08/09 05:52:46;;;;;;;;;;;19.20;72.50;;;;;;4156519;28;19952;-50
2023/08/09 05:55:27;;;;;;;;;;;19.20;72.30;;;;;;4155937;28;20675;-54
2023/08/09 05:58:09;;;;;;;;;;;19.30;72.30;;;;;;4156239;28;19936;-54
2023/08/09 06:00:50;;;;;;;;;;;19.30;72.20;;;;;;4139890;28;19990;-50
2023/08/09 06:03:30;;;;;;;;;;;19.30;72.20;;;;;;4126274;28;19937;-50
2023/08/09 06:06:11;;;;;;;;;;;19.40;72.20;;;;;;4139445;28;19949;-55
2023/08/09 06:08:52;;;;;;;;;;;19.40;72.00;;;;;;4148252;28;19932;-50
2023/08/09 06:11:33;;;;;;;;;;;19.50;72.00;;;;;;4172945;28;20020;-46
2023/08/09 06:14:16;;;;;;;;;;;19.50;71.80;;;;;;4171567;28;19935;-47
2023/08/09 06:16:57;;;;;;;;;;;19.60;71.60;;;;;;4171844;28;19932;-46
2023/08/09 06:19:38;;;;;;;;;;;19.60;71.30;;;;;;4145758;28;19986;-47
2023/08/09 06:22:18;;;;;;;;;;;19.70;71.30;;;;;;4143578;28;20067;-47
2023/08/09 06:24:59;;;;;;;;;;;19.70;71.40;;;;;;4155832;28;19978;-47
2023/08/09 06:27:40;;;;;;;;;;;19.80;72.00;;;;;;4146093;28;20027;-47
2023/08/09 06:30:22;;;;;;;;;;;19.90;72.50;;;;;;4154043;28;19937;-46
2023/08/09 06:33:03;;;;;;;;;;;19.90;72.60;;;;;;4154096;28;19936;-46
2023/08/09 06:35:44;;;;;;;;;;;20.00;73.40;;;;;;4149856;28;19935;-47
2023/08/09 06:38:25;;;;;;;;;;;20.00;72.30;;;;;;4153823;28;20276;-51
2023/08/09 06:41:05;;;;;;;;;;;20.10;72.20;;;;;;4143546;28;19990;-47
2023/08/09 06:43:46;;;;;;;;;;;20.10;71.60;;;;;;4155945;28;19933;-46
2023/08/09 06:46:28;;;;;;;;;;;20.20;72.20;;;;;;4154878;28;19932;-46
2023/08/09 06:49:09;;;;;;;;;;;20.20;70.80;;;;;;4140570;28;20313;-50
2023/08/09 06:51:49;;;;;;;;;;;20.30;70.50;;;;;;4143489;28;19936;-49
2023/08/09 06:54:31;;;;;;;;;;;20.30;71.00;;;;;;4130426;28;19936;-47
2023/08/09 06:57:12;;;;;;;;;;;20.30;69.90;;;;;;4155058;28;20019;-49
2023/08/09 06:59:53;;;;;;;;;;;20.30;69.60;;;;;;4138604;28;19974;-47
2023/08/09 07:02:35;;;;;;;;;;;20.40;69.50;;;;;;4137120;28;19932;-48
2023/08/09 07:05:18;;;;;;;;;;;20.40;69.40;;;;;;4136455;28;19964;-50
2023/08/09 07:07:59;;;;;;;;;;;20.40;69.20;;;;;;4138358;28;19936;-48
2023/08/09 07:10:41;;;;;;;;;;;20.40;69.00;;;;;;4145547;28;19982;-73
2023/08/09 07:13:22;;;;;;;;;;;20.40;68.80;;;;;;4150296;28;19933;-66
2023/08/09 07:16:03;;;;;;;;;;;20.50;68.80;;;;;;4138140;28;19964;-47
2023/08/09 07:18:45;;;;;;;;;;;20.50;69.60;;;;;;4140831;28;19932;-48
2023/08/09 07:21:27;;;;;;;;;;;20.50;68.70;;;;;;4154730;28;19931;-52
2023/08/09 07:24:09;;;;;;;;;;;20.50;68.70;;;;;;4154495;28;19936;-48
2023/08/09 07:26:49;;;;;;;;;;;20.50;68.90;;;;;;4153576;28;20055;-47
2023/08/09 07:29:30;;;;;;;;;;;20.50;68.90;;;;;;4148428;28;20475;-47
2023/08/09 07:32:10;;;;;;;;;;;20.60;69.10;;;;;;4171007;28;19936;-47
2023/08/09 07:34:53;;;;;;;;;;;20.50;69.10;;;;;;4167753;28;19932;-47
2023/08/09 07:37:34;;;;;;;;;;;20.50;68.90;;;;;;4138782;28;19936;-48
2023/08/09 07:40:15;;;;;;;;;;;20.50;68.70;;;;;;4147840;28;19932;-47
2023/08/09 07:42:58;;;;;;;;;;;20.50;68.60;;;;;;4138555;28;20297;-47
2023/08/09 07:45:42;;;;;;;;;;;20.60;68.60;;;;;;4137455;28;19932;-47
2023/08/09 07:48:23;;;;;;;;;;;20.50;68.50;;;;;;4171219;28;19932;-46
2023/08/09 07:51:06;;;;;;;;;;;20.50;68.40;;;;;;4170197;28;19932;-49
2023/08/09 07:53:46;;;;;;;;;;;20.50;68.40;;;;;;4169442;28;20470;-49
2023/08/09 07:56:27;;;;;;;;;;;20.50;68.50;;;;;;4153233;28;19947;-49
2023/08/09 07:59:08;;;;;;;;;;;20.50;68.40;;;;;;4141855;28;19952;-54
2023/08/09 08:01:48;;;;;;;;;;;20.50;68.00;;;;;;4153596;28;20696;-52
2023/08/09 08:04:30;;;;;;;;;;;20.50;67.70;;;;;;4154439;28;20390;-52
2023/08/09 08:07:13;;;;;;;;;;;20.50;67.70;;;;;;4152606;28;20022;-50
2023/08/09 08:09:53;;;;;;;;;;;20.50;67.70;;;;;;4150987;28;19936;-49
2023/08/09 08:12:34;;;;;;;;;;;20.50;67.70;;;;;;4153714;28;20024;-50
2023/08/09 08:15:15;;;;;;;;;;;20.50;67.80;;;;;;4152366;28;19936;-49
2023/08/09 08:17:56;;;;;;;;;;;20.50;67.90;;;;;;4134747;28;20296;-53
2023/08/09 08:20:37;;;;;;;;;;;20.50;68.00;;;;;;4141950;28;19955;-52
2023/08/09 08:23:19;;;;;;;;;;;20.50;68.00;;;;;;4155154;28;20614;-50
2023/08/09 08:26:00;;;;;;;;;;;20.50;68.00;;;;;;4155118;28;19952;-50
2023/08/09 08:28:41;;;;;;;;;;;20.50;67.90;;;;;;4153170;28;19976;-49
2023/08/09 08:31:22;;;;;;;;;;;20.50;67.80;;;;;;4167154;28;19932;-50
2023/08/09 08:34:05;;;;;;;;;;;20.50;67.80;;;;;;4155770;28;19940;-49
2023/08/09 08:36:46;;;;;;;;;;;20.50;67.90;;;;;;4154961;28;20449;-50
2023/08/09 08:39:29;;;;;;;;;;;20.50;67.80;;;;;;4157296;28;19932;-49
2023/08/09 08:42:10;;;;;;;;;;;20.50;67.60;;;;;;4157440;28;20280;-49
2023/08/09 08:44:51;;;;;;;;;;;20.50;67.40;;;;;;4156673;28;19978;-49
2023/08/09 08:47:32;;;;;;;;;;;20.50;67.20;;;;;;4156899;28;19936;-50
2023/08/09 08:50:14;;;;;;;;;;;20.60;67.00;;;;;;4168261;28;19932;-49
2023/08/09 08:52:55;;;;;;;;;;;20.60;66.70;;;;;;4157013;28;19947;-49
2023/08/09 08:55:38;;;;;;;;;;;20.60;66.40;;;;;;4140451;28;19972;-50
2023/08/09 08:58:19;;;;;;;;;;;20.60;65.90;;;;;;4142293;28;19932;-49
2023/08/09 09:01:00;;;;;;;;;;;20.60;65.90;;;;;;4141671;28;19932;-49
2023/08/09 09:03:41;;;;;;;;;;;20.60;65.90;;;;;;4144500;28;20287;-49
2023/08/09 09:06:22;;;;;;;;;;;20.60;65.80;;;;;;4157026;28;19936;-49
2023/08/09 09:09:10;;;;;;;;;;;20.60;65.40;;;;;;4156745;28;19932;-51
2023/08/09 09:11:52;;;;;;;;;;;20.60;65.10;;;;;;4139695;28;19989;-51
2023/08/09 09:14:33;;;;;;;;;;;20.60;65.00;;;;;;4142368;28;19944;-51
2023/08/09 09:17:14;;;;;;;;;;;20.60;64.80;;;;;;4156341;28;19936;-51
2023/08/09 09:19:54;;;;;;;;;;;20.60;64.60;;;;;;4156623;28;20063;-50
2023/08/09 09:22:35;;;;;;;;;;;20.60;64.40;;;;;;4154401;28;19936;-52
2023/08/09 09:25:17;;;;;;;;;;;20.60;64.60;;;;;;4158638;28;19933;-49
2023/08/09 09:28:00;;;;;;;;;;;20.70;64.70;;;;;;4155455;28;19936;-50
2023/08/09 09:30:40;;;;;;;;;;;20.70;63.30;;;;;;4158622;28;20096;-50
2023/08/09 09:33:32;;;;;;;;;;;20.70;63.60;;;;;;4133257;28;19933;-64
2023/08/09 09:36:13;;;;;;;;;;;20.80;63.50;;;;;;4154502;28;19952;-53
2023/08/09 09:38:54;;;;;;;;;;;20.80;63.20;;;;;;4155236;28;20022;-52
2023/08/09 09:41:35;;;;;;;;;;;20.80;63.10;;;;;;4155734;28;19955;-52
2023/08/09 09:44:20;;;;;;;;;;;20.80;62.90;;;;;;4156132;28;20002;-51
2023/08/09 09:47:01;;;;;;;;;;;20.90;62.90;;;;;;4155538;28;19932;-50
2023/08/09 09:49:51;;;;;;;;;;;20.90;62.70;;;;;;4154803;28;19932;-50
2023/08/09 09:52:31;;;;;;;;;;;20.90;62.90;;;;;;4172316;28;19935;-51
2023/08/09 09:55:13;;;;;;;;;;;20.90;63.60;;;;;;4160434;28;19935;-49
2023/08/09 09:57:55;;;;;;;;;;;20.90;62.90;;;;;;4151057;28;19936;-50
2023/08/09 10:00:37;;;;;;;;;;;20.90;62.70;;;;;;4139653;28;20038;-50
2023/08/09 10:03:19;;;;;;;;;;;20.90;63.70;;;;;;4146436;28;19932;-49
2023/08/09 10:06:00;;;;;;;;;;;20.90;62.90;;;;;;4156088;28;20063;-49
2023/08/09 10:08:42;;;;;;;;;;;20.90;62.90;;;;;;4155882;28;19932;-54
2023/08/09 10:11:24;;;;;;;;;;;20.90;62.90;;;;;;4155485;28;19933;-49
2023/08/09 10:14:07;;;;;;;;;;;20.90;62.80;;;;;;4155908;28;20064;-50
2023/08/09 10:16:51;;;;;;;;;;;20.90;62.70;;;;;;4155659;28;19947;-50
2023/08/09 10:19:36;;;;;;;;;;;20.90;62.90;;;;;;4155968;28;19932;-52
2023/08/09 10:22:18;;;;;;;;;;;20.90;62.60;;;;;;4155561;28;19936;-50
2023/08/09 10:24:59;;;;;;;;;;;20.90;62.40;;;;;;4155014;28;20300;-50
2023/08/09 10:27:46;;;;;;;;;;;20.90;62.40;;;;;;4151914;28;20091;-49
2023/08/09 10:30:28;;;;;;;;;;;20.90;62.30;;;;;;4139501;28;19931;-49
2023/08/09 10:33:10;;;;;;;;;;;20.90;62.20;;;;;;4146815;28;20400;-50
2023/08/09 10:35:52;;;;;;;;;;;21.00;62.50;;;;;;4145406;28;20399;-50
2023/08/09 10:38:39;;;;;;;;;;;21.00;62.60;;;;;;4154069;28;19936;-50
2023/08/09 10:41:27;;;;;;;;;;;21.00;62.60;;;;;;4138330;28;19936;-50
2023/08/09 10:44:08;;;;;;;;;;;21.00;63.30;;;;;;4142723;28;19941;-51
2023/08/09 10:46:49;;;;;;;;;;;21.00;61.90;;;;;;4144496;28;20376;-53
2023/08/09 10:49:44;;;;;;;;;;;21.00;61.90;;;;;;4136679;28;20293;-51
2023/08/09 10:52:31;;;;;;;;;;;21.10;62.00;;;;;;4154318;28;19932;-54
2023/08/09 10:55:26;;;;;;;;;;;21.10;62.60;;;;;;4140254;28;20350;-54
2023/08/09 10:58:14;;;;;;;;;;;21.10;61.70;;;;;;4154185;28;19940;-52
2023/08/09 11:00:55;;;;;;;;;;;21.10;61.60;;;;;;4171734;28;19998;-49
2023/08/09 11:03:36;;;;;;;;;;;21.10;61.60;;;;;;4171648;28;19940;-51
2023/08/09 11:06:31;;;;;;;;;;;21.10;62.30;;;;;;4172378;28;19975;-51
2023/08/09 11:09:12;;;;;;;;;;;21.10;61.60;;;;;;4170994;28;19986;-50
2023/08/09 11:11:54;;;;;;;;;;;21.20;61.60;;;;;;4161977;28;19932;-49
2023/08/09 11:14:35;;;;;;;;;;;21.20;61.50;;;;;;4130475;28;19933;-50
2023/08/09 11:17:16;;;;;;;;;;;21.20;61.60;;;;;;4155640;28;19952;-50
2023/08/09 11:19:57;;;;;;;;;;;21.20;61.60;;;;;;4150260;28;20026;-50
2023/08/09 11:22:39;;;;;;;;;;;21.20;61.70;;;;;;4170398;28;20430;-50
2023/08/09 11:25:20;;;;;;;;;;;21.20;62.60;;;;;;4122013;28;19952;-50
2023/08/09 11:28:03;;;;;;;;;;;21.20;61.60;;;;;;4144656;28;20061;-50
2023/08/09 11:30:45;;;;;;;;;;;21.20;61.50;;;;;;4138717;28;20030;-49
2023/08/09 11:33:26;;;;;;;;;;;21.20;61.60;;;;;;4138503;28;20088;-49
2023/08/09 11:36:08;;;;;;;;;;;21.20;61.60;;;;;;4138492;28;20011;-50
2023/08/09 11:38:50;;;;;;;;;;;21.20;61.60;;;;;;4145994;28;20026;-50
2023/08/09 11:41:42;;;;;;;;;;;21.20;61.60;;;;;;4153696;28;20433;-49
2023/08/09 11:44:25;;;;;;;;;;;21.30;61.30;;;;;;4154357;28;19955;-50
2023/08/09 11:47:07;;;;;;;;;;;21.30;61.20;;;;;;4153146;28;19932;-54
2023/08/09 11:49:49;;;;;;;;;;;21.30;60.90;;;;;;4154967;28;20387;-50
2023/08/09 11:52:30;;;;;;;;;;;21.30;60.80;;;;;;4154632;28;19998;-51
2023/08/09 11:55:12;;;;;;;;;;;21.30;60.70;;;;;;4154190;28;19931;-51
2023/08/09 11:57:53;;;;;;;;;;;21.30;60.40;;;;;;4138270;28;19936;-53
2023/08/09 12:00:34;;;;;;;;;;;21.30;60.40;;;;;;4138370;28;19968;-52
2023/08/09 12:03:19;;;;;;;;;;;21.30;60.40;;;;;;4137649;28;19936;-51
2023/08/09 12:06:00;;;;;;;;;;;21.30;60.40;;;;;;4142165;28;20021;-50
2023/08/09 12:08:41;;;;;;;;;;;21.30;60.50;;;;;;4143470;28;19933;-53
2023/08/09 12:11:23;;;;;;;;;;;21.30;61.50;;;;;;4131290;28;20064;-49
2023/08/09 12:14:04;;;;;;;;;;;21.30;60.70;;;;;;4128691;28;19951;-49
2023/08/09 12:16:45;;;;;;;;;;;21.30;60.90;;;;;;4131641;28;19932;-48
2023/08/09 12:19:26;;;;;;;;;;;21.20;61.00;;;;;;4159440;28;19951;-49
2023/08/09 12:22:07;;;;;;;;;;;21.20;61.10;;;;;;4158792;28;19936;-50
2023/08/09 12:24:48;;;;;;;;;;;21.20;61.20;;;;;;4176544;28;19935;-50
2023/08/09 12:27:31;;;;;;;;;;;21.20;61.20;;;;;;4176057;28;20347;-49
2023/08/09 12:30:12;;;;;;;;;;;21.20;61.40;;;;;;4165830;28;20018;-49
2023/08/09 12:32:53;;;;;;;;;;;21.20;61.50;;;;;;4159651;28;20066;-49
2023/08/09 12:35:34;;;;;;;;;;;21.20;61.60;;;;;;4175577;28;19936;-51
2023/08/09 12:38:16;;;;;;;;;;;21.20;61.60;;;;;;4171978;28;20105;-56
2023/08/09 12:40:56;;;;;;;;;;;21.20;61.80;;;;;;4159328;28;19952;-61
2023/08/09 12:43:40;;;;;;;;;;;21.20;62.30;;;;;;4159475;28;19936;-61
2023/08/09 12:46:21;;;;;;;;;;;21.20;63.20;;;;;;4159574;28;19936;-62
2023/08/09 12:49:01;;;;;;;;;;;21.20;62.50;;;;;;4142876;28;19933;-62
2023/08/09 12:51:42;;;;;;;;;;;21.30;62.70;;;;;;4159617;28;20438;-62
2023/08/09 12:54:23;;;;;;;;;;;21.30;62.50;;;;;;4169109;28;19936;-62
2023/08/09 12:57:04;;;;;;;;;;;21.30;62.20;;;;;;4157955;28;19932;-61
2023/08/09 12:59:46;;;;;;;;;;;21.30;61.90;;;;;;4159132;28;19986;-61
2023/08/09 13:02:27;;;;;;;;;;;21.40;62.90;;;;;;4151113;28;19978;-61
2023/08/09 13:05:09;;;;;;;;;;;21.40;61.80;;;;;;4158825;28;19932;-61
2023/08/09 13:07:51;;;;;;;;;;;21.40;61.80;;;;;;4158924;28;24239;-61
2023/08/09 13:10:33;;;;;;;;;;;21.40;61.60;;;;;;4159025;28;19936;-61
2023/08/09 13:13:13;;;;;;;;;;;21.40;61.70;;;;;;4154579;28;19936;-63
2023/08/09 13:15:55;;;;;;;;;;;21.40;61.60;;;;;;4157184;28;20390;-61
2023/08/09 13:18:37;;;;;;;;;;;21.40;61.40;;;;;;4155691;28;20424;-60
2023/08/09 13:21:18;;;;;;;;;;;21.50;61.50;;;;;;4156091;28;19948;-61
2023/08/09 13:23:59;;;;;;;;;;;21.50;61.30;;;;;;4155965;28;19936;-61
2023/08/09 13:26:40;;;;;;;;;;;21.50;62.10;;;;;;4156400;28;20417;-62
2023/08/09 13:29:20;;;;;;;;;;;21.60;61.20;;;;;;4154682;28;20030;-61
2023/08/09 13:32:03;;;;;;;;;;;21.60;61.40;;;;;;4157275;28;19936;-61
2023/08/09 13:34:45;;;;;;;;;;;21.60;61.60;;;;;;4141987;28;19979;-61
2023/08/09 13:37:26;;;;;;;;;;;21.60;61.60;;;;;;4138801;28;19936;-62
2023/08/09 13:40:10;;;;;;;;;;;21.60;62.00;;;;;;4153695;28;19999;-62
2023/08/09 13:42:51;;;;;;;;;;;21.60;62.20;;;;;;4156314;28;19952;-62
2023/08/09 13:45:32;;;;;;;;;;;21.70;62.50;;;;;;4156845;28;19936;-62
2023/08/09 13:48:14;;;;;;;;;;;21.70;62.50;;;;;;4140345;28;19934;-61
2023/08/09 13:50:55;;;;;;;;;;;21.70;62.60;;;;;;4147045;28;19936;-63
2023/08/09 13:53:36;;;;;;;;;;;21.70;62.90;;;;;;4151031;28;19933;-61
2023/08/09 13:56:16;;;;;;;;;;;21.70;63.10;;;;;;4172258;28;20067;-61
2023/08/09 13:58:57;;;;;;;;;;;21.60;63.10;;;;;;4156247;28;19932;-60
2023/08/09 14:01:39;;;;;;;;;;;21.70;63.30;;;;;;4153883;28;19935;-62
2023/08/09 14:04:21;;;;;;;;;;;21.70;63.40;;;;;;4155564;28;20063;-61
2023/08/09 14:07:04;;;;;;;;;;;21.70;63.40;;;;;;4150524;28;20014;-62
2023/08/09 14:09:45;;;;;;;;;;;21.70;63.50;;;;;;4154256;28;19932;-62
2023/08/09 14:12:26;;;;;;;;;;;21.70;63.40;;;;;;4171805;28;19932;-61
2023/08/09 14:15:07;;;;;;;;;;;21.70;63.40;;;;;;4168086;28;20413;-61
2023/08/09 14:17:48;;;;;;;;;;;21.70;63.40;;;;;;4136778;28;19959;-61
2023/08/09 14:20:30;;;;;;;;;;;21.70;63.40;;;;;;4156002;28;19932;-61
2023/08/09 14:23:12;;;;;;;;;;;21.70;63.40;;;;;;4155385;28;20433;-62
2023/08/09 14:25:53;;;;;;;;;;;21.70;63.40;;;;;;4155297;28;19932;-60
2023/08/09 14:28:34;;;;;;;;;;;21.70;63.20;;;;;;4154621;28;20010;-61
2023/08/09 14:31:14;;;;;;;;;;;21.70;63.80;;;;;;4155059;28;20018;-61
2023/08/09 14:33:55;;;;;;;;;;;21.70;62.90;;;;;;4155485;28;19936;-61
2023/08/09 14:36:37;;;;;;;;;;;21.70;62.80;;;;;;4155253;28;19936;-61
2023/08/09 14:39:20;;;;;;;;;;;21.70;63.80;;;;;;4154043;28;19936;-61
2023/08/09 14:42:00;;;;;;;;;;;21.70;62.90;;;;;;4148076;28;19932;-61
2023/08/09 14:44:42;;;;;;;;;;;21.80;62.70;;;;;;4155637;28;19933;-61
2023/08/09 14:47:23;;;;;;;;;;;21.80;62.10;;;;;;4155087;28;20022;-62
2023/08/09 14:50:04;;;;;;;;;;;21.80;62.20;;;;;;4155225;28;19963;-62
2023/08/09 14:52:46;;;;;;;;;;;21.80;62.20;;;;;;4172090;28;20005;-61
2023/08/09 14:55:28;;;;;;;;;;;21.80;62.80;;;;;;4171176;28;20014;-61
2023/08/09 14:58:09;;;;;;;;;;;21.80;61.90;;;;;;4171637;28;19932;-61
2023/08/09 15:00:49;;;;;;;;;;;21.80;61.70;;;;;;4138314;28;19936;-62
2023/08/09 15:03:30;;;;;;;;;;;21.80;61.50;;;;;;4136905;28;19987;-62
2023/08/09 15:06:11;;;;;;;;;;;21.80;61.40;;;;;;4138505;28;19949;-61
2023/08/09 15:08:53;;;;;;;;;;;21.80;61.40;;;;;;4145153;28;19951;-61
2023/08/09 15:11:34;;;;;;;;;;;21.80;61.20;;;;;;4171108;28;19935;-59
2023/08/09 15:14:14;;;;;;;;;;;21.80;60.60;;;;;;4171209;28;20026;-61
2023/08/09 15:16:55;;;;;;;;;;;21.80;60.60;;;;;;4168591;28;19940;-61
2023/08/09 15:19:40;;;;;;;;;;;21.80;60.60;;;;;;4156277;28;19932;-62
2023/08/09 15:22:22;;;;;;;;;;;21.80;60.70;;;;;;4135393;28;19936;-61
2023/08/09 15:25:15;;;;;;;;;;;21.80;60.50;;;;;;4140425;28;19982;-62
2023/08/09 15:27:56;;;;;;;;;;;21.80;60.50;;;;;;4153187;28;19979;-61
2023/08/09 15:30:38;;;;;;;;;;;21.80;61.20;;;;;;4154792;28;20382;-61
2023/08/09 15:33:18;;;;;;;;;;;21.80;60.30;;;;;;4143885;28;19932;-58
2023/08/09 15:35:59;;;;;;;;;;;21.80;60.30;;;;;;4151588;28;19936;-58
2023/08/09 15:38:40;;;;;;;;;;;21.80;60.30;;;;;;4142663;28;20095;-57